Time;durP1;ratioP1;P1;durP2;ratioP2;P2;SDS_P1;SDS_P2;PMS_P1;PMS_P2;Temp;Humidity;BMP_temperature;BMP_pressure;BME280_temperature;BME280_humidity;BME280_pressure;Samples;Min_cycle;Max_cycle;Signal;HPM_P1;HPM_P2
2021/04/14 00:01:21;;;;;;;8.70;6.57;;;-0.50;99.90;;;;;;5028046;28;20838;-73
2021/04/14 00:03:48;;;;;;;9.37;7.30;;;-0.60;99.90;;;;;;5027832;28;20881;-73
2021/04/14 00:06:16;;;;;;;9.20;6.70;;;-0.60;99.90;;;;;;5027542;28;20431;-73
2021/04/14 00:08:43;;;;;;;10.80;7.23;;;-0.60;99.90;;;;;;5036072;28;20541;-73
2021/04/14 00:11:15;;;;;;;7.77;5.60;;;-0.60;99.90;;;;;;5047789;28;20877;-73
2021/04/14 00:13:43;;;;;;;8.20;5.77;;;-0.60;99.90;;;;;;5047937;28;20535;-73
2021/04/14 00:16:12;;;;;;;7.43;6.60;;;-0.60;99.90;;;;;;5047803;28;20437;-73
2021/04/14 00:18:40;;;;;;;8.30;6.30;;;-0.70;99.90;;;;;;5047688;28;20497;-72
2021/04/14 00:21:07;;;;;;;8.97;6.67;;;-0.60;99.90;;;;;;5047683;28;20502;-73
2021/04/14 00:23:34;;;;;;;8.40;5.93;;;-0.70;99.90;;;;;;5047673;28;20636;-73
2021/04/14 00:26:01;;;;;;;7.87;6.00;;;-0.80;99.90;;;;;;5047522;28;20431;-73
2021/04/14 00:28:28;;;;;;;8.90;6.10;;;-0.80;99.90;;;;;;5031335;27;20463;-73
2021/04/14 00:30:55;;;;;;;9.67;5.87;;;-0.90;99.90;;;;;;5027525;28;20430;-73
2021/04/14 00:33:22;;;;;;;8.93;6.30;;;-0.90;99.90;;;;;;5027492;28;20464;-73
2021/04/14 00:35:51;;;;;;;9.30;6.37;;;-0.90;99.90;;;;;;5027574;28;20432;-73
2021/04/14 00:38:20;;;;;;;8.10;5.70;;;-0.90;99.90;;;;;;5027887;28;20977;-73
2021/04/14 00:40:50;;;;;;;9.43;5.60;;;-0.80;99.90;;;;;;5027307;28;20467;-73
2021/04/14 00:43:19;;;;;;;9.43;5.47;;;-0.80;99.90;;;;;;5027199;28;20476;-73
2021/04/14 00:45:46;;;;;;;6.27;5.00;;;-0.80;99.90;;;;;;5027331;28;20440;-73
2021/04/14 00:48:14;;;;;;;7.60;4.83;;;-0.90;99.90;;;;;;5027559;28;20450;-72
2021/04/14 00:50:41;;;;;;;5.43;4.63;;;-0.90;99.90;;;;;;5027853;27;20527;-73
2021/04/14 00:53:09;;;;;;;5.90;5.00;;;-0.90;99.90;;;;;;5027517;28;20460;-73
2021/04/14 00:55:37;;;;;;;6.40;4.67;;;-1.00;99.90;;;;;;5027413;28;20931;-73
2021/04/14 00:58:05;;;;;;;10.27;5.63;;;-0.90;99.90;;;;;;5028405;28;20484;-73
2021/04/14 01:00:34;;;;;;;7.50;5.40;;;-0.90;99.90;;;;;;5030542;28;20534;-73
2021/04/14 01:03:02;;;;;;;6.37;5.20;;;-0.90;99.90;;;;;;5030724;28;20477;-73
2021/04/14 01:05:30;;;;;;;8.03;6.20;;;-0.90;99.90;;;;;;5030647;28;20424;-73
2021/04/14 01:07:57;;;;;;;7.53;5.20;;;-0.90;99.90;;;;;;5030690;28;20435;-72
2021/04/14 01:10:24;;;;;;;5.27;4.77;;;-0.90;99.90;;;;;;5031248;27;20464;-72
2021/04/14 01:12:52;;;;;;;7.50;5.43;;;-0.90;99.90;;;;;;5030334;28;20485;-72
2021/04/14 01:15:21;;;;;;;10.87;5.83;;;-0.90;99.90;;;;;;5030653;28;20439;-73
2021/04/14 01:17:48;;;;;;;7.37;5.77;;;-1.00;99.90;;;;;;5030457;28;20447;-73
2021/04/14 01:20:16;;;;;;;4.97;4.17;;;-0.90;99.90;;;;;;5030497;28;20424;-72
2021/04/14 01:22:44;;;;;;;6.23;4.60;;;-1.00;99.90;;;;;;5030183;28;20440;-74
2021/04/14 01:25:12;;;;;;;6.40;4.83;;;-1.00;99.90;;;;;;5030118;28;20525;-73
2021/04/14 01:27:39;;;;;;;6.03;4.20;;;-1.00;99.90;;;;;;5030447;28;20434;-73
2021/04/14 01:30:10;;;;;;;4.50;3.90;;;-1.00;99.90;;;;;;5030177;28;20526;-73
2021/04/14 01:32:37;;;;;;;5.00;4.30;;;-1.00;99.90;;;;;;5030139;28;20461;-73
2021/04/14 01:35:05;;;;;;;7.67;4.50;;;-1.10;99.90;;;;;;5030370;28;20435;-73
2021/04/14 01:37:32;;;;;;;6.70;4.90;;;-1.10;99.90;;;;;;5029899;28;20595;-72
2021/04/14 01:39:59;;;;;;;6.37;4.70;;;-1.10;99.90;;;;;;5029707;28;20542;-73
2021/04/14 01:42:26;;;;;;;6.93;4.53;;;-1.10;99.90;;;;;;5030216;28;20450;-73
2021/04/14 01:44:53;;;;;;;5.70;4.63;;;-1.20;99.90;;;;;;5030061;28;20471;-72
2021/04/14 01:47:19;;;;;;;5.83;4.50;;;-1.20;99.90;;;;;;5030108;28;20428;-73
2021/04/14 01:49:46;;;;;;;5.20;4.07;;;-1.20;99.90;;;;;;5029901;28;20450;-73
2021/04/14 01:52:13;;;;;;;6.23;4.80;;;-1.20;99.90;;;;;;5029804;28;20455;-73
2021/04/14 01:54:39;;;;;;;5.83;4.70;;;-1.30;99.90;;;;;;5029875;28;20432;-73
2021/04/14 01:57:08;;;;;;;6.97;4.90;;;-1.30;99.90;;;;;;5029954;28;20434;-73
2021/04/14 01:59:35;;;;;;;7.50;5.50;;;-1.20;99.90;;;;;;5029827;28;20430;-73
2021/04/14 02:02:02;;;;;;;6.10;4.90;;;-1.20;99.90;;;;;;5029893;28;20486;-73
2021/04/14 02:04:29;;;;;;;5.60;4.53;;;-1.30;99.90;;;;;;5030315;28;20964;-73
2021/04/14 02:06:55;;;;;;;7.40;5.00;;;-1.30;99.90;;;;;;5029996;28;20473;-73
2021/04/14 02:09:22;;;;;;;6.33;5.23;;;-1.30;99.90;;;;;;5029427;27;20486;-72
2021/04/14 02:11:49;;;;;;;8.83;5.73;;;-1.40;99.90;;;;;;5029758;28;20451;-73
2021/04/14 02:14:16;;;;;;;7.33;6.00;;;-1.40;99.90;;;;;;5029510;28;20441;-73
2021/04/14 02:16:43;;;;;;;6.23;5.20;;;-1.40;99.90;;;;;;5029800;28;20435;-72
2021/04/14 02:19:11;;;;;;;5.90;5.30;;;-1.40;99.90;;;;;;5029376;28;20842;-73
2021/04/14 02:21:40;;;;;;;7.80;5.73;;;-1.30;99.90;;;;;;5029560;28;20527;-73
2021/04/14 02:24:07;;;;;;;6.80;5.27;;;-1.40;99.90;;;;;;5029499;28;20486;-73
2021/04/14 02:26:34;;;;;;;10.37;5.80;;;-1.40;99.90;;;;;;5029204;28;20450;-73
2021/04/14 02:29:01;;;;;;;8.73;6.00;;;-1.30;99.90;;;;;;5029320;28;20533;-73
2021/04/14 02:31:32;;;;;;;7.60;5.40;;;-1.30;99.90;;;;;;5029403;28;20428;-73
2021/04/14 02:34:01;;;;;;;8.60;5.57;;;-1.30;99.90;;;;;;5029130;28;20444;-73
2021/04/14 02:36:28;;;;;;;9.10;5.47;;;-1.30;99.90;;;;;;5029608;28;20439;-73
2021/04/14 02:38:55;;;;;;;5.70;5.20;;;-1.30;99.90;;;;;;5029224;28;20515;-73
2021/04/14 02:41:22;;;;;;;7.37;6.30;;;-1.30;99.90;;;;;;5029240;28;20953;-72
2021/04/14 02:43:50;;;;;;;7.43;5.90;;;-1.30;99.90;;;;;;5028936;28;20527;-73
2021/04/14 02:46:17;;;;;;;8.67;5.33;;;-1.30;99.90;;;;;;5029561;28;20424;-73
2021/04/14 02:48:44;;;;;;;7.37;5.17;;;-1.40;99.90;;;;;;5029030;28;20426;-73
2021/04/14 02:51:11;;;;;;;16.33;5.50;;;-1.40;99.90;;;;;;5029118;28;20804;-73
2021/04/14 02:53:38;;;;;;;9.27;5.83;;;-1.40;99.90;;;;;;5029078;28;20458;-73
2021/04/14 02:56:05;;;;;;;11.50;4.83;;;-1.40;99.90;;;;;;5028928;28;20428;-73
2021/04/14 02:58:32;;;;;;;8.47;5.07;;;-1.40;99.90;;;;;;5029170;28;20932;-73
2021/04/14 03:00:58;;;;;;;7.60;5.57;;;-1.40;99.90;;;;;;5028750;28;20452;-73
2021/04/14 03:03:27;;;;;;;6.30;4.83;;;-1.40;99.90;;;;;;5028836;28;20482;-72
2021/04/14 03:05:55;;;;;;;10.47;5.30;;;-1.40;99.90;;;;;;5028849;28;20450;-73
2021/04/14 03:08:22;;;;;;;8.23;5.67;;;-1.40;99.90;;;;;;5028800;28;20452;-72
2021/04/14 03:10:49;;;;;;;6.30;5.57;;;-1.50;99.90;;;;;;5028451;28;20446;-72
2021/04/14 03:13:17;;;;;;;9.60;4.97;;;-1.40;99.90;;;;;;5029694;27;20537;-73
2021/04/14 03:15:44;;;;;;;7.77;5.30;;;-1.40;99.90;;;;;;5028584;28;20447;-73
2021/04/14 03:18:13;;;;;;;9.37;6.03;;;-1.40;99.90;;;;;;5028928;28;20466;-73
2021/04/14 03:20:40;;;;;;;6.27;4.57;;;-1.40;99.90;;;;;;5028122;28;20955;-73
2021/04/14 03:23:09;;;;;;;5.30;4.70;;;-1.50;99.90;;;;;;5028446;28;20486;-73
2021/04/14 03:25:37;;;;;;;9.87;4.97;;;-1.50;99.90;;;;;;5028297;28;20440;-73
2021/04/14 03:28:04;;;;;;;5.80;4.67;;;-1.60;99.90;;;;;;5028505;28;20912;-72
2021/04/14 03:30:31;;;;;;;6.50;5.03;;;-1.60;99.90;;;;;;5028797;28;20853;-73
2021/04/14 03:32:58;;;;;;;7.30;5.17;;;-1.60;99.90;;;;;;5028161;28;21008;-73
2021/04/14 03:35:27;;;;;;;6.30;5.00;;;-1.70;99.90;;;;;;5028532;28;20436;-72
2021/04/14 03:37:57;;;;;;;8.23;5.30;;;-1.80;99.90;;;;;;5028363;28;20430;-73
2021/04/14 03:40:25;;;;;;;6.47;5.03;;;-1.80;99.90;;;;;;5027925;28;20443;-73
2021/04/14 03:42:53;;;;;;;9.33;4.90;;;-1.90;99.90;;;;;;5028200;28;20460;-73
2021/04/14 03:45:26;;;;;;;10.17;6.40;;;-1.80;99.90;;;;;;5028764;28;20436;-73
2021/04/14 03:47:53;;;;;;;8.57;6.67;;;-1.90;99.90;;;;;;5031381;28;20442;-73
2021/04/14 03:50:21;;;;;;;5.73;4.53;;;-1.80;99.90;;;;;;5047978;28;21077;-73
2021/04/14 03:52:48;;;;;;;5.70;5.10;;;-1.80;99.90;;;;;;5047858;28;20463;-72
2021/04/14 03:55:17;;;;;;;7.27;4.67;;;-1.80;99.90;;;;;;5047945;28;20943;-73
2021/04/14 03:57:45;;;;;;;6.00;5.10;;;-1.80;99.90;;;;;;5047970;28;20446;-74
2021/04/14 04:00:13;;;;;;;7.67;5.53;;;-1.80;99.90;;;;;;5048077;28;20814;-74
2021/04/14 04:02:40;;;;;;;13.93;5.83;;;-1.90;99.90;;;;;;5048296;28;20503;-73
2021/04/14 04:05:09;;;;;;;11.53;6.37;;;-1.90;99.90;;;;;;5047825;28;20486;-74
2021/04/14 04:07:36;;;;;;;9.37;6.40;;;-1.80;99.90;;;;;;5047660;28;20439;-74
2021/04/14 04:10:05;;;;;;;7.60;6.17;;;-1.80;99.90;;;;;;5036975;27;20495;-74
2021/04/14 04:12:32;;;;;;;6.40;5.30;;;-1.80;99.90;;;;;;5027966;28;20443;-74
2021/04/14 04:15:00;;;;;;;7.90;6.70;;;-1.90;99.90;;;;;;5027948;28;20991;-74
2021/04/14 04:17:27;;;;;;;6.83;6.13;;;-1.90;99.90;;;;;;5027901;28;20446;-74
2021/04/14 04:19:53;;;;;;;7.70;4.30;;;-1.90;99.90;;;;;;5027670;28;20450;-74
2021/04/14 04:22:20;;;;;;;5.93;4.10;;;-1.90;99.90;;;;;;5027608;28;20988;-74
2021/04/14 04:24:48;;;;;;;6.33;5.40;;;-1.80;99.90;;;;;;5027572;28;20471;-74
2021/04/14 04:27:15;;;;;;;5.07;4.63;;;-1.90;99.90;;;;;;5027868;28;20420;-74
2021/04/14 04:29:42;;;;;;;9.90;7.43;;;-1.90;99.90;;;;;;5027420;28;20443;-74
2021/04/14 04:32:10;;;;;;;9.67;5.60;;;-1.90;99.90;;;;;;5027740;28;20831;-74
2021/04/14 04:34:37;;;;;;;5.97;4.20;;;-1.90;99.90;;;;;;5030910;28;20527;-74
2021/04/14 04:37:04;;;;;;;5.33;4.40;;;-1.90;99.90;;;;;;5031201;28;20435;-72
2021/04/14 04:39:30;;;;;;;4.97;4.47;;;-1.90;99.90;;;;;;5031143;28;20435;-74
2021/04/14 04:41:57;;;;;;;5.90;5.00;;;-1.80;99.90;;;;;;5031001;28;20471;-74
2021/04/14 04:44:24;;;;;;;7.00;5.43;;;-1.80;99.90;;;;;;5031009;28;21050;-74
2021/04/14 04:46:51;;;;;;;5.50;4.23;;;-1.80;99.90;;;;;;5031069;28;20444;-74
2021/04/14 04:49:18;;;;;;;6.00;4.30;;;-1.80;99.90;;;;;;5030656;28;20434;-74
2021/04/14 04:51:45;;;;;;;6.97;4.17;;;-1.80;99.90;;;;;;5031041;28;20435;-73
2021/04/14 04:54:12;;;;;;;8.07;4.83;;;-1.70;99.90;;;;;;5032208;27;20451;-74
2021/04/14 04:56:38;;;;;;;6.17;4.97;;;-1.70;99.90;;;;;;5030737;28;20534;-74
2021/04/14 04:59:05;;;;;;;5.30;3.70;;;-1.70;99.90;;;;;;5030726;28;20437;-73
2021/04/14 05:01:32;;;;;;;7.03;4.50;;;-1.60;99.90;;;;;;5030774;28;20978;-68
2021/04/14 05:03:59;;;;;;;9.80;4.47;;;-1.50;99.90;;;;;;5031073;28;20499;-68
2021/04/14 05:06:27;;;;;;;8.03;5.40;;;-1.40;99.90;;;;;;5030775;28;20528;-68
2021/04/14 05:08:54;;;;;;;5.77;4.10;;;-1.20;99.90;;;;;;5030477;28;20445;-68
2021/04/14 05:11:20;;;;;;;6.30;5.70;;;-1.10;99.90;;;;;;5030525;28;20454;-68
2021/04/14 05:13:49;;;;;;;8.83;6.20;;;-1.00;99.90;;;;;;5030514;28;20499;-68
2021/04/14 05:16:16;;;;;;;7.40;6.50;;;-1.00;99.90;;;;;;5030524;28;20443;-68
2021/04/14 05:18:42;;;;;;;6.87;5.33;;;-0.90;99.90;;;;;;5030163;28;20431;-69
2021/04/14 05:21:09;;;;;;;8.13;6.10;;;-0.90;99.90;;;;;;5033049;27;20451;-69
2021/04/14 05:23:37;;;;;;;11.60;7.07;;;-0.90;99.90;;;;;;5041315;28;20474;-69
2021/04/14 05:26:07;;;;;;;27.00;14.20;;;-0.80;99.90;;;;;;5030565;28;20458;-69
2021/04/14 05:28:36;;;;;;;25.97;13.30;;;-0.80;99.90;;;;;;5030499;28;20518;-69
2021/04/14 05:31:03;;;;;;;16.00;12.27;;;-0.70;99.90;;;;;;5030320;28;20507;-69
2021/04/14 05:33:30;;;;;;;11.23;8.63;;;-0.60;99.90;;;;;;5030314;28;20537;-69
2021/04/14 05:35:56;;;;;;;8.83;6.40;;;-0.60;99.90;;;;;;5030413;28;20423;-69
2021/04/14 05:38:23;;;;;;;13.57;10.73;;;-0.60;99.90;;;;;;5030446;28;20439;-70
2021/04/14 05:40:51;;;;;;;8.40;6.97;;;-0.50;99.90;;;;;;5029773;28;20515;-69
2021/04/14 05:43:19;;;;;;;15.53;10.70;;;-0.50;99.90;;;;;;5030122;28;20539;-69
2021/04/14 05:45:47;;;;;;;20.87;15.00;;;-0.40;99.90;;;;;;5030087;28;20438;-69
2021/04/14 05:48:15;;;;;;;9.53;8.03;;;-0.40;99.90;;;;;;5030158;28;20432;-69
2021/04/14 05:50:42;;;;;;;11.53;6.20;;;-0.30;99.90;;;;;;5029719;28;20422;-69
2021/04/14 05:53:09;;;;;;;5.27;4.47;;;-0.20;99.90;;;;;;5029980;28;20813;-69
2021/04/14 05:55:36;;;;;;;11.53;4.67;;;-0.20;99.90;;;;;;5045966;28;20444;-67
2021/04/14 05:58:03;;;;;;;6.20;5.10;;;-0.20;99.90;;;;;;5043691;28;20444;-66
2021/04/14 06:00:30;;;;;;;6.90;4.73;;;-0.20;99.90;;;;;;5037720;28;20989;-66
2021/04/14 06:02:57;;;;;;;10.20;5.27;;;-0.20;99.90;;;;;;5030013;28;20448;-66
2021/04/14 06:05:25;;;;;;;6.23;4.70;;;-0.10;99.90;;;;;;5029898;28;20824;-66
2021/04/14 06:07:51;;;;;;;8.53;4.77;;;-0.10;99.90;;;;;;5030171;28;20832;-66
2021/04/14 06:10:21;;;;;;;7.37;4.97;;;-0.10;99.90;;;;;;5029424;28;20428;-66
2021/04/14 06:12:48;;;;;;;5.20;4.03;;;0.00;99.90;;;;;;5029821;28;20488;-67
2021/04/14 06:15:19;;;;;;;6.07;4.37;;;0.10;99.90;;;;;;5029735;27;20536;-66
2021/04/14 06:17:46;;;;;;;7.30;5.00;;;0.20;99.90;;;;;;5029815;28;20431;-66
2021/04/14 06:20:15;;;;;;;11.67;7.80;;;0.20;99.90;;;;;;5033497;27;20442;-66
2021/04/14 06:22:42;;;;;;;10.13;6.23;;;0.30;99.90;;;;;;5039260;28;20547;-66
2021/04/14 06:25:12;;;;;;;6.70;5.20;;;0.40;99.90;;;;;;5041789;28;20474;-67
2021/04/14 06:27:44;;;;;;;8.67;5.70;;;0.50;99.90;;;;;;5033344;27;20587;-66
2021/04/14 06:30:12;;;;;;;7.27;4.63;;;0.50;99.90;;;;;;5029585;28;20440;-67
2021/04/14 06:32:41;;;;;;;6.57;5.00;;;0.60;99.90;;;;;;5030506;27;20494;-66
2021/04/14 06:35:09;;;;;;;7.10;4.70;;;0.60;99.90;;;;;;5029717;28;20435;-67
2021/04/14 06:37:36;;;;;;;7.23;5.33;;;0.70;99.90;;;;;;5029225;28;20436;-66
2021/04/14 06:40:35;;;;;;;5.87;4.97;;;0.80;99.90;;;;;;5029143;28;20977;-67
2021/04/14 06:43:11;;;;;;;23.63;10.67;;;0.90;99.90;;;;;;5029349;28;20944;-66
2021/04/14 06:45:44;;;;;;;154.10;58.00;;;1.00;99.90;;;;;;5030271;27;20466;-67
2021/04/14 06:48:28;;;;;;;25.53;13.73;;;1.10;99.90;;;;;;5029249;28;20419;-66
2021/04/14 06:50:59;;;;;;;14.47;8.50;;;1.20;99.90;;;;;;5029036;28;21023;-67
2021/04/14 06:53:38;;;;;;;9.00;5.40;;;1.10;99.90;;;;;;5032280;28;20489;-66
2021/04/14 06:56:09;;;;;;;9.63;4.50;;;1.20;99.90;;;;;;5048316;28;20423;-67
2021/04/14 06:58:40;;;;;;;5.60;5.00;;;1.20;99.90;;;;;;5048485;28;20555;-67
2021/04/14 07:01:13;;;;;;;8.00;5.00;;;1.30;99.90;;;;;;5048799;27;20514;-66
2021/04/14 07:03:48;;;;;;;4.93;3.87;;;1.40;99.90;;;;;;5048862;28;20471;-66
2021/04/14 07:06:19;;;;;;;4.60;4.00;;;1.40;99.90;;;;;;5048739;28;20442;-66
2021/04/14 07:08:59;;;;;;;12.97;4.20;;;1.50;99.90;;;;;;5048624;28;20534;-66
2021/04/14 07:11:27;;;;;;;7.17;4.80;;;1.50;99.90;;;;;;5036138;27;20460;-67
2021/04/14 07:13:54;;;;;;;5.03;4.33;;;1.50;99.90;;;;;;5028975;28;20530;-65
2021/04/14 07:16:37;;;;;;;12.30;4.73;;;1.60;99.90;;;;;;5029930;27;20439;-67
2021/04/14 07:19:20;;;;;;;10.73;5.70;;;1.70;99.90;;;;;;5028717;28;20424;-66
2021/04/14 07:21:52;;;;;;;4.30;3.90;;;1.80;99.90;;;;;;5033489;28;20452;-66
2021/04/14 07:24:26;;;;;;;6.63;4.60;;;1.90;99.90;;;;;;5038084;28;20460;-66
2021/04/14 07:26:58;;;;;;;13.00;7.40;;;2.00;99.90;;;;;;5028586;28;20768;-66
2021/04/14 07:29:33;;;;;;;13.47;4.70;;;2.00;99.90;;;;;;5028941;28;20430;-65
2021/04/14 07:32:18;;;;;;;4.30;3.73;;;2.20;99.90;;;;;;5028424;28;20453;-66
2021/04/14 07:35:10;;;;;;;6.37;4.97;;;2.40;99.90;;;;;;5028520;28;20536;-67
2021/04/14 07:37:47;;;;;;;7.67;4.90;;;2.50;99.90;;;;;;5028777;28;20428;-66
2021/04/14 07:40:18;;;;;;;5.97;3.53;;;2.60;99.90;;;;;;5028046;27;20428;-66
2021/04/14 07:42:56;;;;;;;6.43;4.00;;;2.70;99.90;;;;;;5029059;27;20570;-66
2021/04/14 07:45:28;;;;;;;8.10;4.03;;;2.80;99.90;;;;;;5028555;28;20475;-66
2021/04/14 07:47:58;;;;;;;6.80;5.10;;;3.00;99.90;;;;;;5029375;27;20508;-66
2021/04/14 07:50:33;;;;;;;11.10;3.87;;;3.00;99.90;;;;;;5028068;28;20441;-66
2021/04/14 07:53:00;;;;;;;3.63;3.03;;;3.10;99.90;;;;;;5028220;28;20449;-65
2021/04/14 07:55:31;;;;;;;4.53;3.37;;;3.10;99.90;;;;;;5028560;28;20796;-65
2021/04/14 07:58:09;;;;;;;6.53;3.67;;;3.30;99.90;;;;;;5028282;28;20424;-67
2021/04/14 08:00:39;;;;;;;4.97;3.80;;;3.40;99.90;;;;;;5026675;28;20784;-65
2021/04/14 08:03:17;;;;;;;3.90;2.97;;;3.50;99.90;;;;;;5027714;28;20448;-66
2021/04/14 08:05:45;;;;;;;4.10;2.20;;;3.40;99.90;;;;;;5028356;28;20428;-66
2021/04/14 08:08:24;;;;;;;11.40;3.13;;;3.40;99.90;;;;;;5027350;28;20509;-67
2021/04/14 08:10:57;;;;;;;3.70;3.00;;;3.50;99.90;;;;;;5028022;28;20424;-66
2021/04/14 08:13:26;;;;;;;5.47;3.77;;;3.50;99.90;;;;;;5027637;28;20468;-67
2021/04/14 08:15:54;;;;;;;5.10;2.70;;;3.60;99.90;;;;;;5028105;28;20430;-66
2021/04/14 08:18:26;;;;;;;5.33;3.47;;;3.50;99.90;;;;;;5028855;27;20569;-67
2021/04/14 08:21:12;;;;;;;3.60;2.97;;;3.40;99.90;;;;;;5027811;28;20508;-66
2021/04/14 08:23:40;;;;;;;5.63;3.43;;;3.50;99.90;;;;;;5027754;28;20487;-65
2021/04/14 08:26:17;;;;;;;7.37;3.30;;;3.60;99.90;;;;;;5027867;28;20453;-67
2021/04/14 08:28:46;;;;;;;3.90;3.60;;;3.90;99.90;;;;;;5027651;28;20526;-66
2021/04/14 08:31:34;;;;;;;2.87;2.43;;;4.00;99.90;;;;;;5027870;28;20435;-66
2021/04/14 08:34:10;;;;;;;3.83;3.40;;;4.10;99.90;;;;;;5027419;28;20443;-65
2021/04/14 08:36:45;;;;;;;5.20;2.93;;;4.00;99.90;;;;;;5027752;28;20461;-65
2021/04/14 08:39:16;;;;;;;5.20;3.50;;;3.90;99.90;;;;;;5027599;28;20496;-66
2021/04/14 08:41:43;;;;;;;4.90;3.67;;;4.00;99.90;;;;;;5027696;28;20506;-65
2021/04/14 08:44:13;;;;;;;5.93;3.13;;;4.10;99.90;;;;;;5027605;28;21051;-66
2021/04/14 08:46:43;;;;;;;4.77;4.27;;;4.30;99.90;;;;;;5027810;28;20432;-66
2021/04/14 08:49:14;;;;;;;5.70;3.37;;;4.50;99.90;;;;;;5027344;28;20451;-65
2021/04/14 08:51:44;;;;;;;3.63;2.87;;;4.60;99.90;;;;;;5027805;28;20440;-65
2021/04/14 08:54:22;;;;;;;4.17;3.23;;;4.60;99.90;;;;;;5027507;28;20442;-66
2021/04/14 08:56:53;;;;;;;5.07;3.60;;;4.60;99.90;;;;;;5028834;27;20846;-65
2021/04/14 08:59:21;;;;;;;5.40;3.90;;;4.60;99.90;;;;;;5027276;28;20467;-67
2021/04/14 09:01:49;;;;;;;7.77;3.30;;;4.70;99.90;;;;;;5027348;28;20476;-66
2021/04/14 09:04:16;;;;;;;6.97;4.10;;;4.90;99.90;;;;;;5026699;28;20475;-66
2021/04/14 09:06:47;;;;;;;5.13;3.60;;;5.00;99.90;;;;;;5028744;27;20543;-65
2021/04/14 09:09:18;;;;;;;7.30;3.57;;;5.00;99.90;;;;;;5027266;28;20434;-66
2021/04/14 09:11:58;;;;;;;4.57;3.40;;;5.00;99.90;;;;;;5027105;28;20528;-66
2021/04/14 09:14:29;;;;;;;5.60;3.73;;;4.90;99.90;;;;;;5027249;28;20523;-66
2021/04/14 09:16:58;;;;;;;3.87;3.00;;;5.00;99.90;;;;;;5028462;27;20436;-67
2021/04/14 09:19:32;;;;;;;11.73;3.37;;;5.00;99.90;;;;;;5032719;28;20438;-67
2021/04/14 09:22:01;;;;;;;5.10;3.10;;;4.80;99.90;;;;;;5039341;28;20467;-66
2021/04/14 09:24:37;;;;;;;7.33;3.97;;;4.70;99.90;;;;;;5030301;28;21045;-67
2021/04/14 09:27:08;;;;;;;5.90;3.53;;;5.00;99.90;;;;;;5030791;28;20810;-66
2021/04/14 09:30:06;;;;;;;4.20;3.80;;;5.30;99.90;;;;;;5030656;28;20911;-66
2021/04/14 09:32:54;;;;;;;8.20;4.17;;;5.60;99.90;;;;;;5035300;28;20456;-66
2021/04/14 09:35:36;;;;;;;4.93;3.40;;;5.80;99.90;;;;;;5030146;28;20446;-65
2021/04/14 09:38:14;;;;;;;7.33;3.70;;;5.70;99.90;;;;;;5030474;28;20432;-66
2021/04/14 09:40:41;;;;;;;4.37;3.07;;;5.80;99.90;;;;;;5030343;28;20912;-66
2021/04/14 09:43:31;;;;;;;5.43;3.37;;;5.60;99.90;;;;;;5030267;28;20447;-66
2021/04/14 09:46:01;;;;;;;4.00;3.50;;;5.50;99.90;;;;;;5041589;28;20447;-65
2021/04/14 09:48:39;;;;;;;3.90;3.40;;;5.40;99.90;;;;;;5050060;28;20510;-66
2021/04/14 09:51:23;;;;;;;2.93;2.63;;;5.50;99.90;;;;;;5050137;28;20814;-66
2021/04/14 09:53:57;;;;;;;7.17;3.30;;;5.50;99.90;;;;;;5050113;28;20448;-66
2021/04/14 09:56:25;;;;;;;4.13;2.60;;;5.30;99.90;;;;;;5050083;28;20426;-66
2021/04/14 09:58:56;;;;;;;5.80;3.00;;;5.10;99.90;;;;;;5049334;27;20437;-66
2021/04/14 10:01:28;;;;;;;4.73;3.43;;;4.80;99.90;;;;;;5030342;28;20466;-66
2021/04/14 10:03:59;;;;;;;4.67;2.70;;;4.80;99.90;;;;;;5029385;28;20527;-66
2021/04/14 10:06:26;;;;;;;5.53;2.90;;;5.00;99.90;;;;;;5029751;28;20443;-67
2021/04/14 10:09:00;;;;;;;5.07;3.00;;;4.90;99.90;;;;;;5029910;28;20517;-66
2021/04/14 10:11:32;;;;;;;2.87;2.53;;;4.90;99.90;;;;;;5030231;28;20446;-66
2021/04/14 10:14:08;;;;;;;3.30;2.63;;;4.90;99.90;;;;;;5029588;28;20421;-67
2021/04/14 10:16:35;;;;;;;4.67;2.73;;;4.90;99.90;;;;;;5029967;28;20527;-66
2021/04/14 10:19:03;;;;;;;3.97;2.67;;;4.90;99.90;;;;;;5032017;28;20464;-66
2021/04/14 10:21:31;;;;;;;6.70;2.47;;;4.90;99.90;;;;;;5039248;28;20943;-66
2021/04/14 10:24:04;;;;;;;4.70;2.90;;;4.90;99.90;;;;;;5039596;27;20481;-66
2021/04/14 10:26:32;;;;;;;6.40;3.20;;;5.00;99.90;;;;;;5029586;28;20523;-66
2021/04/14 10:29:01;;;;;;;3.73;2.87;;;5.00;99.90;;;;;;5035215;28;20420;-66
2021/04/14 10:31:30;;;;;;;5.00;3.23;;;5.10;99.90;;;;;;5048095;28;20439;-66
2021/04/14 10:34:07;;;;;;;7.03;3.47;;;5.10;99.90;;;;;;5048826;28;20526;-67
2021/04/14 10:36:38;;;;;;;4.07;2.30;;;5.10;99.90;;;;;;5047695;28;20441;-68
2021/04/14 10:39:11;;;;;;;8.00;2.63;;;5.30;99.90;;;;;;5046568;28;20422;-68
2021/04/14 10:41:40;;;;;;;5.27;3.40;;;5.50;99.90;;;;;;5048641;28;20438;-67
2021/04/14 10:44:24;;;;;;;3.73;3.00;;;5.70;99.90;;;;;;5048938;28;20955;-67
2021/04/14 10:47:01;;;;;;;3.10;2.80;;;6.20;99.90;;;;;;5047222;28;20443;-67
2021/04/14 10:49:31;;;;;;;2.33;2.07;;;6.70;99.90;;;;;;5045606;27;20446;-68
2021/04/14 10:52:04;;;;;;;4.63;2.60;;;7.20;99.30;;;;;;5048997;28;20477;-66
2021/04/14 10:54:32;;;;;;;4.40;2.37;;;7.40;99.90;;;;;;5047179;28;20490;-66
2021/04/14 10:57:03;;;;;;;3.43;2.17;;;7.40;99.60;;;;;;5032160;27;20448;-67
2021/04/14 10:59:31;;;;;;;2.60;2.40;;;7.70;99.90;;;;;;5028953;28;20448;-68
2021/04/14 11:02:08;;;;;;;3.73;2.60;;;8.00;99.70;;;;;;5029221;28;20450;-67
2021/04/14 11:04:39;;;;;;;3.13;2.60;;;8.20;99.50;;;;;;5028999;28;20479;-68
2021/04/14 11:07:10;;;;;;;2.40;2.20;;;8.40;97.70;;;;;;5029859;27;20453;-67
2021/04/14 11:09:40;;;;;;;5.73;2.47;;;8.60;98.30;;;;;;5028865;28;20432;-67
2021/04/14 11:12:10;;;;;;;2.97;2.10;;;8.90;96.80;;;;;;5028731;28;20475;-68
2021/04/14 11:14:40;;;;;;;4.87;3.47;;;8.80;97.20;;;;;;5029174;28;20474;-68
2021/04/14 11:17:08;;;;;;;5.80;3.07;;;8.30;94.60;;;;;;5028701;28;20927;-68
2021/04/14 11:19:37;;;;;;;5.13;2.80;;;7.60;96.10;;;;;;5032637;28;20452;-69
2021/04/14 11:22:06;;;;;;;4.87;2.70;;;7.00;96.90;;;;;;5037868;27;20471;-68
2021/04/14 11:24:44;;;;;;;7.73;3.20;;;6.50;97.40;;;;;;5037695;28;20472;-68
2021/04/14 11:27:17;;;;;;;3.13;2.60;;;6.20;98.20;;;;;;5028636;28;20442;-69
2021/04/14 11:29:44;;;;;;;6.07;3.10;;;5.80;98.00;;;;;;5028409;28;20435;-69
2021/04/14 11:32:19;;;;;;;3.13;2.83;;;5.70;98.90;;;;;;5028487;28;20459;-69
2021/04/14 11:34:57;;;;;;;4.90;2.87;;;5.60;97.80;;;;;;5028624;28;20453;-69
2021/04/14 11:37:30;;;;;;;3.90;2.90;;;5.40;98.00;;;;;;5028715;28;20440;-69
2021/04/14 11:40:00;;;;;;;5.13;2.67;;;5.40;97.60;;;;;;5027796;28;20424;-69
2021/04/14 11:42:29;;;;;;;3.70;2.90;;;5.40;97.80;;;;;;5028156;28;20448;-69
2021/04/14 11:45:00;;;;;;;7.17;5.30;;;5.50;99.30;;;;;;5028398;28;20503;-69
2021/04/14 11:47:29;;;;;;;5.23;3.13;;;5.50;99.70;;;;;;5028307;28;20439;-68
2021/04/14 11:50:11;;;;;;;4.33;3.63;;;5.50;99.90;;;;;;5028230;28;20443;-69
2021/04/14 11:52:39;;;;;;;7.00;4.13;;;5.60;99.90;;;;;;5046883;28;20900;-69
2021/04/14 11:55:22;;;;;;;7.40;6.13;;;5.70;99.90;;;;;;5047937;28;20442;-69
2021/04/14 11:57:55;;;;;;;7.33;5.40;;;5.80;99.90;;;;;;5048277;28;20443;-70
2021/04/14 12:00:28;;;;;;;9.23;3.77;;;6.00;99.90;;;;;;5047893;28;20928;-70
2021/04/14 12:02:57;;;;;;;3.97;3.67;;;6.20;99.80;;;;;;5047815;28;20559;-70
2021/04/14 12:05:24;;;;;;;5.80;3.70;;;6.50;99.00;;;;;;5048175;28;20485;-68
2021/04/14 12:07:51;;;;;;;4.13;3.17;;;6.70;96.50;;;;;;5047712;28;20939;-68
2021/04/14 12:10:18;;;;;;;3.87;3.17;;;6.70;96.60;;;;;;5047973;28;20777;-68
2021/04/14 12:12:45;;;;;;;6.80;3.80;;;6.90;96.80;;;;;;5047896;28;20989;-68
2021/04/14 12:15:13;;;;;;;5.63;3.33;;;7.00;96.10;;;;;;5047771;28;20443;-68
2021/04/14 12:17:40;;;;;;;6.97;4.50;;;7.10;93.60;;;;;;5047918;28;20784;-68
2021/04/14 12:20:08;;;;;;;6.43;4.00;;;7.20;93.50;;;;;;5039625;28;20439;-68
2021/04/14 12:22:35;;;;;;;4.97;3.47;;;7.20;94.00;;;;;;5033950;28;20886;-68
2021/04/14 12:25:01;;;;;;;6.00;4.40;;;7.40;92.70;;;;;;5027555;28;20479;-68
2021/04/14 12:27:29;;;;;;;6.13;2.93;;;7.40;91.50;;;;;;5029118;27;20455;-68
2021/04/14 12:29:56;;;;;;;3.60;2.70;;;7.50;92.20;;;;;;5027549;28;20531;-68
2021/04/14 12:32:22;;;;;;;4.90;2.93;;;7.70;93.30;;;;;;5027750;28;20467;-68
2021/04/14 12:34:49;;;;;;;4.20;2.60;;;7.70;93.10;;;;;;5027736;28;20447;-68
2021/04/14 12:37:16;;;;;;;5.33;3.20;;;7.60;91.90;;;;;;5027671;28;20490;-68
2021/04/14 12:39:43;;;;;;;3.90;2.70;;;7.20;92.50;;;;;;5027273;28;20424;-68
2021/04/14 12:42:10;;;;;;;5.13;3.30;;;7.10;93.00;;;;;;5027590;28;20527;-68
2021/04/14 12:44:38;;;;;;;5.23;3.60;;;7.00;93.40;;;;;;5027650;28;20852;-68
2021/04/14 12:47:13;;;;;;;4.70;2.80;;;7.00;93.20;;;;;;5027819;28;20478;-68
2021/04/14 12:49:42;;;;;;;6.47;3.13;;;6.90;92.90;;;;;;5027490;28;20459;-68
2021/04/14 12:52:20;;;;;;;4.63;3.60;;;6.70;94.10;;;;;;5027727;28;20465;-69
2021/04/14 12:54:48;;;;;;;3.20;2.63;;;6.40;95.70;;;;;;5029505;28;21085;-68
2021/04/14 12:57:21;;;;;;;4.57;3.00;;;6.20;96.60;;;;;;5031129;28;20510;-68
2021/04/14 12:59:53;;;;;;;4.70;3.07;;;5.80;97.70;;;;;;5031002;28;20455;-68
2021/04/14 13:02:23;;;;;;;3.00;2.50;;;5.70;97.90;;;;;;5030850;28;20444;-68
2021/04/14 13:04:57;;;;;;;3.70;3.20;;;5.60;98.40;;;;;;5030944;28;20512;-68